Time;durP1;ratioP1;P1;durP2;ratioP2;P2;SDS_P1;SDS_P2;PMS_P1;PMS_P2;Temp;Humidity;BMP_temperature;BMP_pressure;BME280_temperature;BME280_humidity;BME280_pressure;Samples;Min_cycle;Max_cycle;Signal;HPM_P1;HPM_P2
2021/03/08 00:00:34;;;;;;;15.88;6.25;;;4.20;84.80;;;;;;5051212;28;20021;-66
2021/03/08 00:03:00;;;;;;;;;;;4.10;84.90;;;;;;5052157;28;20052;-67
2021/03/08 00:05:26;;;;;;;8.88;5.57;;;4.00;84.80;;;;;;5051045;28;19923;-67
2021/03/08 00:07:52;;;;;;;9.07;6.45;;;4.00;85.10;;;;;;5051867;28;20059;-67
2021/03/08 00:10:19;;;;;;;7.22;5.70;;;4.10;85.20;;;;;;5016565;28;20108;-68
2021/03/08 00:12:47;;;;;;;7.20;5.78;;;4.10;85.00;;;;;;5051708;28;20021;-68
2021/03/08 00:15:14;;;;;;;8.43;5.15;;;4.10;84.90;;;;;;5033745;28;20028;-68
2021/03/08 00:17:40;;;;;;;7.80;6.07;;;4.10;84.70;;;;;;5051376;28;20044;-68
2021/03/08 00:20:09;;;;;;;7.18;5.43;;;4.10;84.80;;;;;;5033577;28;20029;-67
2021/03/08 00:22:36;;;;;;;6.57;4.70;;;4.10;84.50;;;;;;5050594;28;20271;-67
2021/03/08 00:25:10;;;;;;;8.05;5.60;;;4.10;84.10;;;;;;5033239;28;20021;-67
2021/03/08 00:27:36;;;;;;;7.40;5.15;;;4.10;84.10;;;;;;5032905;28;20071;-67
2021/03/08 00:30:03;;;;;;;15.82;5.47;;;3.90;84.60;;;;;;5051492;28;20099;-68
2021/03/08 00:32:29;;;;;;;8.15;5.53;;;3.90;84.80;;;;;;5050713;28;20025;-67
2021/03/08 00:34:55;;;;;;;10.75;5.50;;;3.90;84.80;;;;;;5051046;28;20366;-68
2021/03/08 00:37:20;;;;;;;6.82;5.28;;;3.90;84.50;;;;;;5050732;28;20430;-67
2021/03/08 00:39:46;;;;;;;7.55;5.40;;;3.90;84.70;;;;;;5033365;28;20412;-66
2021/03/08 00:42:12;;;;;;;9.60;4.97;;;3.90;84.40;;;;;;5033421;28;20036;-68
2021/03/08 00:44:37;;;;;;;6.97;5.05;;;3.90;84.40;;;;;;5050208;28;20415;-68
2021/03/08 00:47:03;;;;;;;6.40;5.10;;;3.80;84.80;;;;;;5033445;28;20465;-67
2021/03/08 00:49:28;;;;;;;6.47;4.93;;;3.80;84.80;;;;;;5032810;28;20454;-68
2021/03/08 00:51:54;;;;;;;10.52;4.68;;;3.80;84.70;;;;;;5033259;28;20074;-67
2021/03/08 00:54:20;;;;;;;7.10;5.20;;;3.70;84.60;;;;;;5032588;28;20017;-68
2021/03/08 00:56:46;;;;;;;7.10;5.03;;;3.70;84.90;;;;;;5051122;28;20083;-67
2021/03/08 00:59:11;;;;;;;6.53;4.72;;;3.70;85.00;;;;;;5035986;28;20033;-67
2021/03/08 01:01:37;;;;;;;5.72;4.82;;;3.60;84.80;;;;;;5036813;28;20031;-68
2021/03/08 01:04:03;;;;;;;6.82;4.72;;;3.70;84.90;;;;;;5055582;28;20086;-67
2021/03/08 01:06:28;;;;;;;6.35;4.40;;;3.70;84.60;;;;;;5036821;28;20029;-68
2021/03/08 01:08:54;;;;;;;5.82;4.53;;;3.70;84.80;;;;;;5037262;28;20024;-68
2021/03/08 01:11:20;;;;;;;10.00;4.72;;;3.70;85.30;;;;;;5054668;28;20304;-67
2021/03/08 01:13:45;;;;;;;6.63;4.93;;;3.60;84.80;;;;;;5036871;28;20415;-68
2021/03/08 01:16:11;;;;;;;7.28;4.90;;;3.60;85.00;;;;;;5037127;28;20351;-67
2021/03/08 01:18:37;;;;;;;6.72;5.05;;;3.50;85.00;;;;;;5036191;28;20083;-68
2021/03/08 01:21:03;;;;;;;10.32;4.75;;;3.60;85.30;;;;;;5037182;28;20021;-68
2021/03/08 01:23:28;;;;;;;5.82;4.32;;;3.60;84.90;;;;;;5036401;28;20029;-68
2021/03/08 01:25:54;;;;;;;5.97;4.55;;;3.60;85.20;;;;;;5051888;28;20358;-66
2021/03/08 01:28:20;;;;;;;8.45;4.90;;;3.50;85.10;;;;;;5074098;28;20129;-69
2021/03/08 01:30:46;;;;;;;6.80;5.30;;;3.40;85.80;;;;;;5074223;28;20059;-67
2021/03/08 01:33:12;;;;;;;6.32;5.15;;;3.50;86.20;;;;;;5073305;28;20027;-68
2021/03/08 01:35:39;;;;;;;7.00;5.07;;;3.50;86.50;;;;;;5073995;28;20099;-68
2021/03/08 01:38:05;;;;;;;11.00;6.25;;;3.40;87.30;;;;;;5073037;28;20028;-66
2021/03/08 01:40:33;;;;;;;9.90;6.05;;;3.30;88.10;;;;;;5073624;28;20031;-68
2021/03/08 01:42:59;;;;;;;8.00;5.85;;;3.20;88.10;;;;;;5072539;28;20027;-68
2021/03/08 01:45:25;;;;;;;8.73;5.90;;;3.20;88.20;;;;;;5072429;28;20434;-68
2021/03/08 01:47:51;;;;;;;11.25;6.93;;;3.30;88.20;;;;;;5072839;28;20031;-67
2021/03/08 01:50:29;;;;;;;7.05;6.03;;;3.30;88.00;;;;;;5072893;28;20024;-68
2021/03/08 01:52:56;;;;;;;9.18;5.70;;;3.50;87.70;;;;;;5072765;28;20086;-67
2021/03/08 01:55:22;;;;;;;8.55;5.50;;;3.40;87.80;;;;;;5073193;28;20020;-68
2021/03/08 01:57:48;;;;;;;8.88;5.65;;;3.20;87.60;;;;;;5073815;28;20032;-66
2021/03/08 02:00:15;;;;;;;9.10;5.30;;;3.30;87.80;;;;;;5073912;28;20541;-66
2021/03/08 02:02:42;;;;;;;11.55;5.55;;;3.30;87.70;;;;;;5071700;28;20025;-67
2021/03/08 02:05:12;;;;;;;9.40;5.93;;;3.40;87.70;;;;;;5072184;28;20025;-67
2021/03/08 02:07:38;;;;;;;7.55;5.15;;;3.40;87.50;;;;;;5071546;28;20024;-66
2021/03/08 02:10:08;;;;;;;7.30;5.50;;;3.30;87.60;;;;;;5071863;28;20077;-67
2021/03/08 02:12:46;;;;;;;10.13;5.22;;;3.40;87.50;;;;;;5072856;28;20032;-66
2021/03/08 02:15:34;;;;;;;8.75;6.22;;;3.40;87.50;;;;;;5073142;28;20107;-67
2021/03/08 02:18:03;;;;;;;6.25;5.10;;;3.40;87.60;;;;;;5071510;28;20029;-66
2021/03/08 02:20:49;;;;;;;6.78;5.63;;;3.30;87.80;;;;;;5072657;28;20160;-67
2021/03/08 02:23:46;;;;;;;6.88;5.30;;;3.30;88.30;;;;;;5072935;28;20449;-67
2021/03/08 02:26:33;;;;;;;9.40;5.88;;;3.20;88.70;;;;;;5028586;28;20075;-66
2021/03/08 02:29:15;;;;;;;9.38;5.47;;;3.30;88.60;;;;;;5052850;28;20132;-66
2021/03/08 02:31:42;;;;;;;10.88;6.15;;;3.30;89.00;;;;;;5034567;28;20039;-67
2021/03/08 02:34:11;;;;;;;8.25;5.88;;;3.30;89.50;;;;;;5052789;28;20347;-66
2021/03/08 02:36:42;;;;;;;8.43;6.53;;;3.20;89.50;;;;;;5052408;28;20065;-67
2021/03/08 02:39:16;;;;;;;8.10;6.00;;;3.30;89.30;;;;;;5035428;28;20032;-67
2021/03/08 02:41:44;;;;;;;7.25;5.78;;;3.40;89.60;;;;;;5034442;28;20041;-67
2021/03/08 02:44:14;;;;;;;8.43;6.88;;;3.40;89.40;;;;;;5034976;28;20067;-66
2021/03/08 02:46:43;;;;;;;10.05;7.65;;;3.30;89.80;;;;;;5051990;28;20080;-67
2021/03/08 02:49:15;;;;;;;10.63;6.50;;;3.30;90.00;;;;;;5052997;28;20037;-68
2021/03/08 02:51:48;;;;;;;8.35;6.82;;;3.20;90.30;;;;;;5034318;28;20446;-66
2021/03/08 02:54:17;;;;;;;8.60;6.13;;;3.20;90.40;;;;;;5052572;28;20414;-67
2021/03/08 02:56:46;;;;;;;8.73;7.35;;;3.10;90.50;;;;;;5034187;28;20032;-67
2021/03/08 02:59:13;;;;;;;11.30;6.45;;;3.10;90.50;;;;;;5052715;28;20017;-67
2021/03/08 03:01:41;;;;;;;10.18;6.82;;;3.10;90.60;;;;;;5052089;28;20079;-66
2021/03/08 03:04:08;;;;;;;8.80;7.35;;;3.10;90.70;;;;;;5052359;28;20081;-67
2021/03/08 03:06:36;;;;;;;7.68;6.25;;;3.00;90.80;;;;;;5034172;28;20029;-68
2021/03/08 03:09:06;;;;;;;7.72;6.93;;;3.10;90.80;;;;;;5052670;28;20017;-66
2021/03/08 03:11:34;;;;;;;10.13;7.22;;;3.10;90.90;;;;;;5052080;28;20044;-66
2021/03/08 03:14:02;;;;;;;8.95;6.95;;;3.10;91.00;;;;;;5052305;28;20021;-67
2021/03/08 03:16:30;;;;;;;10.80;6.72;;;3.10;91.00;;;;;;5033882;28;20041;-68
2021/03/08 03:18:57;;;;;;;14.10;7.40;;;3.10;91.00;;;;;;5052603;28;20031;-67
2021/03/08 03:21:30;;;;;;;8.07;6.50;;;3.10;91.10;;;;;;5033876;28;20028;-67
2021/03/08 03:23:56;;;;;;;9.15;7.10;;;3.00;91.10;;;;;;5034239;28;20047;-67
2021/03/08 03:26:22;;;;;;;10.75;7.00;;;3.10;91.30;;;;;;5052052;28;20411;-67
2021/03/08 03:28:49;;;;;;;11.50;6.90;;;3.10;91.30;;;;;;5051586;28;20029;-66
2021/03/08 03:31:18;;;;;;;9.13;7.10;;;3.10;91.30;;;;;;5052345;28;20024;-66
2021/03/08 03:33:45;;;;;;;8.88;6.97;;;3.00;91.60;;;;;;5017172;28;20028;-66
2021/03/08 03:36:11;;;;;;;9.70;6.85;;;3.00;91.60;;;;;;5033928;28;20047;-66
2021/03/08 03:38:39;;;;;;;12.93;7.28;;;3.00;91.60;;;;;;5033401;28;20108;-67
2021/03/08 03:41:05;;;;;;;13.05;8.20;;;3.00;91.60;;;;;;5033897;28;20029;-66
2021/03/08 03:43:31;;;;;;;14.13;6.93;;;3.00;91.70;;;;;;5050660;28;20105;-66
2021/03/08 03:46:01;;;;;;;10.93;6.18;;;3.10;91.70;;;;;;5051348;28;20044;-66
2021/03/08 03:48:27;;;;;;;11.00;7.70;;;3.10;91.90;;;;;;5051078;28;20035;-73
2021/03/08 03:50:53;;;;;;;10.30;5.72;;;3.00;92.10;;;;;;5051779;28;20115;-67
2021/03/08 03:53:19;;;;;;;14.05;6.63;;;3.10;92.20;;;;;;5033423;28;20064;-68
2021/03/08 03:55:44;;;;;;;12.02;7.13;;;3.00;92.40;;;;;;5050929;28;20047;-67
2021/03/08 03:58:30;;;;;;;12.10;6.55;;;3.00;92.60;;;;;;5051211;28;20477;-67
2021/03/08 04:01:05;;;;;;;9.45;6.68;;;3.00;92.70;;;;;;5033545;28;20025;-67
2021/03/08 04:03:34;;;;;;;11.43;7.47;;;3.00;92.70;;;;;;5050766;28;20020;-67
2021/03/08 04:06:01;;;;;;;9.15;6.47;;;3.00;92.90;;;;;;5033763;28;20029;-69
2021/03/08 04:08:29;;;;;;;8.68;6.35;;;2.90;92.90;;;;;;5051712;28;20025;-67
2021/03/08 04:10:57;;;;;;;9.27;6.53;;;2.90;93.20;;;;;;5033443;28;20025;-67
2021/03/08 04:13:29;;;;;;;11.50;6.75;;;2.80;93.10;;;;;;5051005;28;20036;-65
2021/03/08 04:15:56;;;;;;;9.13;6.57;;;2.80;93.10;;;;;;5051211;28;20036;-67
2021/03/08 04:18:25;;;;;;;8.85;6.32;;;2.90;93.10;;;;;;5050831;28;20086;-67
2021/03/08 04:20:54;;;;;;;8.63;6.57;;;2.80;93.10;;;;;;5032196;28;20028;-67
2021/03/08 04:23:22;;;;;;;10.63;7.55;;;2.70;93.10;;;;;;5051081;28;20081;-67
2021/03/08 04:25:49;;;;;;;11.70;6.82;;;2.70;93.40;;;;;;5050459;28;20122;-67
2021/03/08 04:28:16;;;;;;;10.35;6.53;;;2.70;93.50;;;;;;5051504;28;20173;-67
2021/03/08 04:30:44;;;;;;;10.10;7.15;;;2.60;93.70;;;;;;5050203;28;20031;-67
2021/03/08 04:33:11;;;;;;;8.88;6.80;;;2.70;93.70;;;;;;5032112;28;20041;-67
2021/03/08 04:35:37;;;;;;;8.75;7.07;;;2.70;93.80;;;;;;5050502;28;20116;-67
2021/03/08 04:38:04;;;;;;;9.02;6.88;;;2.70;93.90;;;;;;5050856;28;20473;-66
2021/03/08 04:40:31;;;;;;;10.27;6.60;;;2.70;94.00;;;;;;5032882;28;20485;-70
2021/03/08 04:42:57;;;;;;;10.85;7.45;;;2.60;94.10;;;;;;5050836;28;20047;-66
2021/03/08 04:45:23;;;;;;;11.23;7.50;;;2.60;94.30;;;;;;5050992;28;20032;-68
2021/03/08 04:47:50;;;;;;;10.10;6.72;;;2.60;94.40;;;;;;5050612;28;20357;-67
2021/03/08 04:50:17;;;;;;;9.75;7.05;;;2.50;94.50;;;;;;5033575;28;20021;-67
2021/03/08 04:52:46;;;;;;;9.60;7.10;;;2.60;94.40;;;;;;5032404;28;20021;-67
2021/03/08 04:55:13;;;;;;;11.27;7.65;;;2.60;94.40;;;;;;5033104;28;20469;-67
2021/03/08 04:57:40;;;;;;;8.55;7.18;;;2.60;94.60;;;;;;5032422;28;20029;-67
2021/03/08 05:00:08;;;;;;;17.38;8.20;;;2.60;94.50;;;;;;5033032;28;20082;-67
2021/03/08 05:02:39;;;;;;;10.32;7.47;;;2.50;94.50;;;;;;5032236;28;20135;-67
2021/03/08 05:05:08;;;;;;;11.73;8.57;;;2.60;94.60;;;;;;5032906;28;20033;-67
2021/03/08 05:07:37;;;;;;;10.15;7.80;;;2.50;94.90;;;;;;5050266;28;20033;-68
2021/03/08 05:10:04;;;;;;;12.25;8.27;;;2.60;94.70;;;;;;5032370;28;20033;-67
2021/03/08 05:12:34;;;;;;;12.05;8.07;;;2.50;94.90;;;;;;5032723;28;20025;-67
2021/03/08 05:15:04;;;;;;;10.00;7.50;;;2.40;95.10;;;;;;5050975;28;20028;-67
2021/03/08 05:17:30;;;;;;;14.05;8.00;;;2.40;95.30;;;;;;5050791;28;20120;-67
2021/03/08 05:19:58;;;;;;;10.48;8.27;;;2.40;95.30;;;;;;5032262;28;20125;-67
2021/03/08 05:22:25;;;;;;;11.95;7.80;;;2.50;95.30;;;;;;5050117;28;20536;-66
2021/03/08 05:24:51;;;;;;;12.15;7.78;;;2.50;95.40;;;;;;5031711;28;20032;-68
2021/03/08 05:27:18;;;;;;;11.93;9.35;;;2.50;95.20;;;;;;5065449;28;20060;-68
2021/03/08 05:29:45;;;;;;;21.30;8.98;;;2.50;95.30;;;;;;5068170;28;20029;-66
2021/03/08 05:32:15;;;;;;;14.10;8.65;;;2.50;95.50;;;;;;5068764;28;20025;-66
2021/03/08 05:34:48;;;;;;;13.18;8.98;;;2.50;95.40;;;;;;5069126;28;20024;-66
2021/03/08 05:37:14;;;;;;;12.52;8.70;;;2.50;95.40;;;;;;5068670;28;20119;-67
2021/03/08 05:39:42;;;;;;;10.63;8.88;;;2.50;95.40;;;;;;5068122;28;20025;-67
2021/03/08 05:42:13;;;;;;;12.02;8.65;;;2.40;95.80;;;;;;5068733;28;20028;-67
2021/03/08 05:45:02;;;;;;;15.15;10.00;;;2.40;95.90;;;;;;5070745;28;20063;-68
2021/03/08 05:47:59;;;;;;;11.43;9.30;;;2.40;95.90;;;;;;5071362;28;20041;-67
2021/03/08 05:50:47;;;;;;;13.77;10.05;;;2.40;95.80;;;;;;5073650;28;20032;-67
2021/03/08 05:53:26;;;;;;;14.43;8.73;;;2.30;96.00;;;;;;5071996;28;20076;-67
2021/03/08 05:56:20;;;;;;;12.90;9.00;;;2.30;96.00;;;;;;5071172;28;20444;-66
2021/03/08 05:59:06;;;;;;;13.48;9.15;;;2.30;96.20;;;;;;5072647;28;20107;-67
2021/03/08 06:02:16;;;;;;;13.50;9.77;;;2.30;96.00;;;;;;5071889;28;20032;-67
2021/03/08 06:05:18;;;;;;;15.25;8.68;;;2.30;96.20;;;;;;4974559;28;20117;-66
2021/03/08 06:08:08;;;;;;;12.95;9.20;;;2.30;96.40;;;;;;4991311;28;20030;-67
2021/03/08 06:10:40;;;;;;;15.63;9.10;;;2.40;96.30;;;;;;5062283;28;20123;-67
2021/03/08 06:13:10;;;;;;;13.63;8.38;;;2.30;96.30;;;;;;5073069;28;20096;-67
2021/03/08 06:15:37;;;;;;;13.35;9.13;;;2.40;96.40;;;;;;5071956;28;20343;-66
2021/03/08 06:18:12;;;;;;;17.05;10.48;;;2.40;96.30;;;;;;5071424;28;20350;-68
2021/03/08 06:20:38;;;;;;;13.48;9.40;;;2.50;96.10;;;;;;5072526;28;20043;-66
2021/03/08 06:23:05;;;;;;;16.85;9.90;;;2.40;96.30;;;;;;5073163;28;20513;-66
2021/03/08 06:25:30;;;;;;;13.77;9.88;;;2.30;96.50;;;;;;5071069;28;20370;-67
2021/03/08 06:27:57;;;;;;;17.58;9.38;;;2.30;96.50;;;;;;5034750;28;20351;-66
2021/03/08 06:30:24;;;;;;;12.00;9.27;;;2.50;96.70;;;;;;5035310;28;20466;-67
2021/03/08 06:32:51;;;;;;;18.83;10.60;;;2.50;96.90;;;;;;5053127;28;20029;-66
2021/03/08 06:35:17;;;;;;;15.30;9.88;;;2.50;96.90;;;;;;5053202;28;20392;-67
2021/03/08 06:37:45;;;;;;;16.00;10.13;;;2.50;96.90;;;;;;5052691;28;20062;-67
2021/03/08 06:40:11;;;;;;;16.70;11.27;;;2.50;97.00;;;;;;5034656;28;20025;-67
2021/03/08 06:42:38;;;;;;;19.95;11.35;;;2.50;97.10;;;;;;5034335;28;20051;-73
2021/03/08 06:45:06;;;;;;;16.40;11.15;;;2.60;97.00;;;;;;5052760;28;20106;-67
2021/03/08 06:47:32;;;;;;;18.02;11.23;;;2.60;96.80;;;;;;5052729;28;20068;-67
2021/03/08 06:49:58;;;;;;;19.67;10.73;;;2.60;96.80;;;;;;5034511;28;20025;-66
2021/03/08 06:52:38;;;;;;;17.25;10.90;;;2.50;96.80;;;;;;5035159;28;20405;-66
2021/03/08 06:55:04;;;;;;;19.50;12.32;;;2.70;97.00;;;;;;5052375;28;20017;-67
2021/03/08 06:57:32;;;;;;;14.55;10.60;;;2.90;96.50;;;;;;5033831;28;20041;-67
2021/03/08 07:00:00;;;;;;;16.15;11.65;;;3.10;96.10;;;;;;5034151;28;20327;-67
2021/03/08 07:02:47;;;;;;;17.08;11.77;;;3.20;95.60;;;;;;5034474;28;20029;-66
2021/03/08 07:05:22;;;;;;;21.08;11.25;;;3.40;95.10;;;;;;5034796;28;20021;-69
2021/03/08 07:07:59;;;;;;;13.23;10.52;;;3.60;95.00;;;;;;5034332;28;20029;-67
2021/03/08 07:10:41;;;;;;;18.85;11.93;;;3.70;94.50;;;;;;5034744;28;20033;-68
2021/03/08 07:13:09;;;;;;;19.88;11.77;;;3.90;94.10;;;;;;5034977;28;20544;-67
2021/03/08 07:16:00;;;;;;;17.60;10.90;;;4.10;93.50;;;;;;5034812;28;20049;-67
2021/03/08 07:18:26;;;;;;;15.65;11.00;;;3.90;93.40;;;;;;5052447;28;20482;-67
2021/03/08 07:21:12;;;;;;;23.95;11.82;;;3.90;93.40;;;;;;5034044;28;20029;-67
2021/03/08 07:23:40;;;;;;;21.08;11.30;;;4.00;93.20;;;;;;5054123;28;20020;-67
2021/03/08 07:26:06;;;;;;;17.75;13.38;;;4.00;93.30;;;;;;5051555;28;20048;-67
2021/03/08 07:28:32;;;;;;;23.88;13.43;;;4.00;93.30;;;;;;5088646;28;20024;-67
